Du har inga inställningar för hoppväder.nu

Hoppväder.nu

Senast uppdaterat 09:38

UTC-tid

2021-06-16 kl. 07:38


Sol och måne

Solen går upp 4:09 och går ner 23:01 (beräknade cirkatider)
Nästa fullmåne blir om 8 dagar (2021-06-24)

METAR

ESMX (Växjö)
(18 minuter sedan)
ESMX 160720Z 22009KT 190V260 9999 FEW021 15/09 Q1019=



ESMT (Halmstad)
(18 minuter sedan)
ESMT 160720Z 24007KT 210V280 9999 FEW020 15/10 Q1020=



ESGJ (Jönköping)
(18 minuter sedan)
ESGJ 160720Z 21009KT CAVOK 13/08 Q1018=



ESMK (Everöd)
(18 minuter sedan)
ESMK 160720Z 19007KT 160V250 CAVOK 19/10 Q1020=






TAF

ESMX (Växjö)
(128 minuter sedan)
ESMX 160530Z 1606/1614 23008KT CAVOK=



ESMT (Halmstad)
(155 minuter sedan)
ESMT 160503Z 1606/1615 20008KT CAVOK=



ESGJ (Jönköping)
(128 minuter sedan)
ESGJ 160530Z 1606/1615 24008KT CAVOK=



ESMK (Everöd)
(155 minuter sedan)
ESMK 160503Z 1606/1615 18005KT CAVOK=





Kodnycklar till TAF och METAR






LHP

(Feringe är område se22g i Delområde 2)

Översikt

ÖVERSIKT FÖR OMRÅDE se2 UTFÄRDAD 160337

GÄLLANDE DEN 16 JUNI 2021 MELLAN 04 OCH 12 UTC


Väderöversikt

En högtrycksrygg täcker södra Sverige.

Sikt under 5 kilometer eller molnbas under 1000 fot
04-06UTC: Hela området utom se22


Måttlig eller svår isbildning
Väntas inte förekomma under perioden

Måttlig eller svår turbulens
Väntas inte förekomma under perioden

Delområde 2

PROGNOS FÖR OMRÅDE se22 UTFÄRDAD 160337
GÄLLANDE DEN 16 JUNI 2021 MELLAN 04 OCH 12 UTC

Måttlig eller svår turbulens
04-12UTC: I hela området: Väntas inte förekomma under perioden

Måttlig eller svår isbildning
04-12UTC: I hela området: Väntas inte förekomma under perioden

Sikt/Väder/Moln
04-06UTC: Område se22e,se22g: Sikt >8km. Molnbas 1000ft - >2000ft.

04-12UTC: Område se22a,se22d,se22c,se22b,se22i,se22h,se22f,se22l,se22k,se22j: Sikt >8km. Molnbas >2000ft.

06-12UTC: Område se22e,se22g: Sikt >8km. Molnbas >2000ft.


Molnöversida
04-06UTC: Område se22e,se22g: Molnöversida 2000ft.

04-12UTC: Område se22a,se22d,se22c,se22b,se22i,se22h,se22f,se22l,se22k,se22j: Ingen prognos

06-12UTC: Område se22e,se22g: Ingen prognos


CB/TCU Moln
04-12UTC: I hela området: Väntas inte förekomma under perioden

Nollgradersisoterm
04-06UTC: Noll grader FL100 - FL120.
06-12UTC: Noll grader FL100 - > FL125.

Vind vid marken
04-06UTC: Område se22d: V-NV/4-11 knop, byar upp till 15 knop.
Område se22f: SV-V/2-5 knop, byar upp till 13 knop.
Område se22h: SV-V/0-6 knop.
Område se22k: V/0-6 knop.
Område se22b: V/2-9 knop.
Område se22g: SV/0-6 knop, byar upp till 11 knop.
Område se22l: V-NV/0-7 knop.
Område se22e: SV-V/1-6 knop, byar upp till 15 knop.
Område se22i,se22j: Lugnt.
Område se22c: V-NV/3-10 knop, byar upp till 14 knop.
Område se22a: V/2-8 knop.

06-08UTC: Område se22i: SV/3-6 knop, byar upp till 14 knop.
Område se22h: SV-V/4-8 knop, byar upp till 17 knop.
Område se22l: S-SV/0-4 knop.
Område se22j: SV-V/3-5 knop, byar upp till 15 knop.
Område se22c: V/3-9 knop, byar upp till 17 knop.
Område se22f: SV-V/4-6 knop, byar upp till 17 knop.
Område se22a,se22b,se22g: SV-V/4-8 knop, byar upp till 16 knop.
Område se22d: V/2-10 knop, byar upp till 13 knop.
Område se22k: S-SV/0-8 knop, byar upp till 16 knop.

06-12UTC: Område se22e: SV-V/4-7 knop, byar upp till 18 knop.

08-10UTC: Område se22c: SV/4-10 knop, byar upp till 20 knop.
Område se22g: SV-V/4-8 knop, byar upp till 17 knop.
Område se22f: V/5-6 knop, byar upp till 17 knop.
Område se22j: SV-V/4-7 knop, byar upp till 19 knop.
Område se22a: SV/1-12 knop, byar upp till 17 knop.
Område se22d: SV-V/2-9 knop, byar upp till 13 knop.
Område se22l: S/2-7 knop.
Område se22b: SV/4-13 knop, byar upp till 20 knop.
Område se22i: SV-V/3-6 knop, byar upp till 17 knop.
Område se22k: S/3-13 knop, byar upp till 21 knop.
Område se22h: SV-V/4-8 knop, byar upp till 18 knop.

10-12UTC: Område se22j: SV/4-6 knop, byar upp till 20 knop.
Område se22h: SV-V/4-7 knop, byar upp till 17 knop.
Område se22g: SV-V/3-7 knop, byar upp till 16 knop.
Område se22c: S-SV/3-17 knop, byar upp till 26 knop.
Område se22d: SV/5-12 knop.
Område se22f: SV-V/4-6 knop, byar upp till 17 knop.
Område se22l: S/4-9 knop.
Område se22a: S-SV/2-16 knop, byar upp till 22 knop.
Område se22i: SV/3-6 knop, byar upp till 19 knop.
Område se22k: S-SV/4-14 knop, byar upp till 23 knop.
Område se22b: S-SV/3-20 knop, byar upp till 27 knop.


Genomsnittlig vind och temperatur för området
2000ft:
04-06UTC: 270/10kt +8.
06-08UTC: 250/11kt +8.
08-10UTC: 250/11kt +10.
10-12UTC: 250/10kt +12.

FL50:
04-06UTC: 270/13kt +7.
06-08UTC: 280/13kt +7.
08-10UTC: 280/12kt +8.
10-12UTC: 280/10kt +9.

FL100:
04-06UTC: 290/14kt +2.
06-08UTC: 280/13kt +2.
08-10UTC: 280/13kt +3.
10-12UTC: 280/12kt +3.

Lägsta QNH
1017 hPa.

OBS! endast utbredd måttlig eller svår isbildning och turbulens prognostiseras i LLF.
Avsaknad av isbildning och turbulens i prognosen utesluter inte förekomst av lätt isbildning och turbulens.
För indikation på lätt isbildning, var vänlig kontrollera om prognosen för molntopp ligger högre än nollgradersisotermen.
Förekomst av TCU eller CB medför alltid en risk för måttlig eller svår isbildning och turbulens även om det inte framgår explicit av prognosen.







Spotting

Hur fungerar spotthjälpen och Vindkartan?

Markvind är ca 2-4 m/s med byar på 8 m/s.
Vind på 600 m ca 6 m/s.
Vind på 1500 m ca 7 m/s.
Vind på 3000 m ca 7 m/s.
Filip Helge flyger ca 34 m/s över marken på finalen.
Du driver ca 301 m bakåt i frifall. (401 m)
Lämplig spot är 1 sekunder eller 34 m efter gropen.
(3 s eller 103 m)
För små grupper eller ensamhoppare bör man vänta 4-6 sekunder mellan grupperna.
För större grupper bör man vänta 9-11 sekunder mellan grupperna.


Vindkartan

Senast uppdaterad 09:38




All data kommer från LFV.se